sensor_id;sensor_type;location;lat;lon;timestamp;P1;durP1;ratioP1;P2;durP2;ratioP2
51913;SDS011;37940;53.002;6.930;2022-08-30T00:01:05;11.52;;;5.78;;
51913;SDS011;37940;53.002;6.930;2022-08-30T00:06:11;7.88;;;5.07;;
51913;SDS011;37940;53.002;6.930;2022-08-30T00:08:39;9.68;;;5.35;;
51913;SDS011;37940;53.002;6.930;2022-08-30T00:11:08;8.98;;;5.60;;
51913;SDS011;37940;53.002;6.930;2022-08-30T00:13:36;6.40;;;4.53;;
51913;SDS011;37940;53.002;6.930;2022-08-30T00:16:03;7.05;;;4.75;;
51913;SDS011;37940;53.002;6.930;2022-08-30T00:18:30;8.45;;;5.32;;
51913;SDS011;37940;53.002;6.930;2022-08-30T00:20:57;8.00;;;4.93;;
51913;SDS011;37940;53.002;6.930;2022-08-30T00:23:23;8.35;;;5.60;;
51913;SDS011;37940;53.002;6.930;2022-08-30T00:25:49;9.80;;;5.82;;
51913;SDS011;37940;53.002;6.930;2022-08-30T00:28:15;8.90;;;5.47;;
51913;SDS011;37940;53.002;6.930;2022-08-30T00:30:41;6.65;;;5.50;;
51913;SDS011;37940;53.002;6.930;2022-08-30T00:33:08;8.77;;;5.55;;
51913;SDS011;37940;53.002;6.930;2022-08-30T00:35:35;6.90;;;5.05;;
51913;SDS011;37940;53.002;6.930;2022-08-30T00:38:02;6.88;;;5.03;;
51913;SDS011;37940;53.002;6.930;2022-08-30T00:40:28;9.52;;;5.40;;
51913;SDS011;37940;53.002;6.930;2022-08-30T00:42:55;8.30;;;5.47;;
51913;SDS011;37940;53.002;6.930;2022-08-30T00:45:24;7.75;;;5.20;;
51913;SDS011;37940;53.002;6.930;2022-08-30T00:47:52;6.72;;;5.25;;
51913;SDS011;37940;53.002;6.930;2022-08-30T00:50:19;9.68;;;5.40;;
51913;SDS011;37940;53.002;6.930;2022-08-30T00:52:49;7.90;;;5.53;;
51913;SDS011;37940;53.002;6.930;2022-08-30T00:55:17;8.30;;;6.10;;
51913;SDS011;37940;53.002;6.930;2022-08-30T00:57:45;8.95;;;6.00;;
51913;SDS011;37940;53.002;6.930;2022-08-30T01:00:13;8.75;;;6.00;;
51913;SDS011;37940;53.002;6.930;2022-08-30T01:02:40;9.02;;;5.78;;
51913;SDS011;37940;53.002;6.930;2022-08-30T01:05:07;10.38;;;5.85;;
51913;SDS011;37940;53.002;6.930;2022-08-30T01:07:35;11.45;;;6.10;;
51913;SDS011;37940;53.002;6.930;2022-08-30T01:10:01;8.45;;;5.78;;
51913;SDS011;37940;53.002;6.930;2022-08-30T01:12:28;10.80;;;6.47;;
51913;SDS011;37940;53.002;6.930;2022-08-30T01:14:54;8.52;;;5.72;;
51913;SDS011;37940;53.002;6.930;2022-08-30T01:17:21;9.75;;;6.43;;
51913;SDS011;37940;53.002;6.930;2022-08-30T01:22:21;9.95;;;6.13;;
51913;SDS011;37940;53.002;6.930;2022-08-30T01:25:08;9.98;;;6.30;;
51913;SDS011;37940;53.002;6.930;2022-08-30T01:27:36;9.48;;;6.18;;
51913;SDS011;37940;53.002;6.930;2022-08-30T01:30:05;8.07;;;6.45;;
51913;SDS011;37940;53.002;6.930;2022-08-30T01:32:37;7.78;;;5.72;;
51913;SDS011;37940;53.002;6.930;2022-08-30T01:35:07;7.05;;;5.88;;
51913;SDS011;37940;53.002;6.930;2022-08-30T01:37:34;11.02;;;6.47;;
51913;SDS011;37940;53.002;6.930;2022-08-30T01:40:01;10.75;;;6.25;;
51913;SDS011;37940;53.002;6.930;2022-08-30T01:42:28;9.13;;;6.78;;
51913;SDS011;37940;53.002;6.930;2022-08-30T01:44:54;10.52;;;6.47;;
51913;SDS011;37940;53.002;6.930;2022-08-30T01:47:19;9.20;;;6.88;;
51913;SDS011;37940;53.002;6.930;2022-08-30T01:49:46;12.02;;;6.75;;
51913;SDS011;37940;53.002;6.930;2022-08-30T01:52:12;9.68;;;7.25;;
51913;SDS011;37940;53.002;6.930;2022-08-30T01:54:40;8.73;;;6.82;;
51913;SDS011;37940;53.002;6.930;2022-08-30T01:57:07;11.90;;;7.22;;
51913;SDS011;37940;53.002;6.930;2022-08-30T01:59:35;12.05;;;7.32;;
51913;SDS011;37940;53.002;6.930;2022-08-30T02:02:03;9.75;;;6.80;;
51913;SDS011;37940;53.002;6.930;2022-08-30T02:04:29;10.20;;;6.90;;
51913;SDS011;37940;53.002;6.930;2022-08-30T02:06:55;9.23;;;7.18;;
51913;SDS011;37940;53.002;6.930;2022-08-30T02:09:20;8.77;;;6.82;;
51913;SDS011;37940;53.002;6.930;2022-08-30T02:11:46;9.70;;;6.80;;
51913;SDS011;37940;53.002;6.930;2022-08-30T02:14:12;11.77;;;7.28;;
51913;SDS011;37940;53.002;6.930;2022-08-30T02:16:39;8.27;;;6.70;;
51913;SDS011;37940;53.002;6.930;2022-08-30T02:19:05;10.48;;;7.53;;
51913;SDS011;37940;53.002;6.930;2022-08-30T02:21:32;10.95;;;7.63;;
51913;SDS011;37940;53.002;6.930;2022-08-30T02:23:57;10.95;;;8.35;;
51913;SDS011;37940;53.002;6.930;2022-08-30T02:26:23;10.45;;;7.90;;
51913;SDS011;37940;53.002;6.930;2022-08-30T02:28:50;9.50;;;8.38;;
51913;SDS011;37940;53.002;6.930;2022-08-30T02:31:18;11.73;;;7.57;;
51913;SDS011;37940;53.002;6.930;2022-08-30T02:33:44;11.38;;;8.50;;
51913;SDS011;37940;53.002;6.930;2022-08-30T02:36:10;11.13;;;7.65;;
51913;SDS011;37940;53.002;6.930;2022-08-30T02:38:36;12.02;;;8.73;;
51913;SDS011;37940;53.002;6.930;2022-08-30T02:41:02;8.95;;;7.25;;
51913;SDS011;37940;53.002;6.930;2022-08-30T02:43:28;11.07;;;7.55;;
51913;SDS011;37940;53.002;6.930;2022-08-30T02:45:54;8.65;;;7.75;;
51913;SDS011;37940;53.002;6.930;2022-08-30T02:48:20;8.63;;;7.72;;
51913;SDS011;37940;53.002;6.930;2022-08-30T02:50:46;10.18;;;7.45;;
51913;SDS011;37940;53.002;6.930;2022-08-30T02:53:14;8.65;;;7.47;;
51913;SDS011;37940;53.002;6.930;2022-08-30T02:55:40;10.65;;;8.27;;
51913;SDS011;37940;53.002;6.930;2022-08-30T02:58:06;9.75;;;7.93;;
51913;SDS011;37940;53.002;6.930;2022-08-30T03:00:35;9.80;;;7.88;;
51913;SDS011;37940;53.002;6.930;2022-08-30T03:03:02;11.63;;;9.23;;
51913;SDS011;37940;53.002;6.930;2022-08-30T03:05:31;10.32;;;8.02;;
51913;SDS011;37940;53.002;6.930;2022-08-30T03:07:57;9.27;;;7.57;;
51913;SDS011;37940;53.002;6.930;2022-08-30T03:10:24;12.40;;;9.18;;
51913;SDS011;37940;53.002;6.930;2022-08-30T03:12:52;10.48;;;8.57;;
51913;SDS011;37940;53.002;6.930;2022-08-30T03:15:19;13.60;;;8.77;;
51913;SDS011;37940;53.002;6.930;2022-08-30T03:17:46;9.68;;;8.57;;
51913;SDS011;37940;53.002;6.930;2022-08-30T03:20:11;11.35;;;8.50;;
51913;SDS011;37940;53.002;6.930;2022-08-30T03:22:38;11.05;;;8.95;;
51913;SDS011;37940;53.002;6.930;2022-08-30T03:25:04;10.90;;;8.65;;
51913;SDS011;37940;53.002;6.930;2022-08-30T03:27:30;12.13;;;9.00;;
51913;SDS011;37940;53.002;6.930;2022-08-30T03:29:55;11.70;;;8.55;;
51913;SDS011;37940;53.002;6.930;2022-08-30T03:32:21;9.68;;;8.55;;
51913;SDS011;37940;53.002;6.930;2022-08-30T03:34:47;14.00;;;10.20;;
51913;SDS011;37940;53.002;6.930;2022-08-30T03:37:14;13.00;;;9.07;;
51913;SDS011;37940;53.002;6.930;2022-08-30T03:39:40;10.05;;;8.57;;
51913;SDS011;37940;53.002;6.930;2022-08-30T03:42:06;10.98;;;8.25;;
51913;SDS011;37940;53.002;6.930;2022-08-30T03:44:31;13.15;;;8.70;;
51913;SDS011;37940;53.002;6.930;2022-08-30T03:46:57;12.27;;;8.98;;
51913;SDS011;37940;53.002;6.930;2022-08-30T03:49:23;10.40;;;9.30;;
51913;SDS011;37940;53.002;6.930;2022-08-30T03:51:50;14.27;;;9.60;;
51913;SDS011;37940;53.002;6.930;2022-08-30T03:54:16;10.90;;;8.35;;
51913;SDS011;37940;53.002;6.930;2022-08-30T03:56:42;10.40;;;8.82;;
51913;SDS011;37940;53.002;6.930;2022-08-30T03:59:08;10.00;;;8.13;;
51913;SDS011;37940;53.002;6.930;2022-08-30T04:01:34;11.13;;;9.50;;
51913;SDS011;37940;53.002;6.930;2022-08-30T04:03:59;11.45;;;8.85;;
51913;SDS011;37940;53.002;6.930;2022-08-30T04:06:25;11.13;;;8.68;;
51913;SDS011;37940;53.002;6.930;2022-08-30T04:08:52;11.95;;;9.10;;
51913;SDS011;37940;53.002;6.930;2022-08-30T04:11:17;14.70;;;8.73;;
51913;SDS011;37940;53.002;6.930;2022-08-30T04:13:44;12.85;;;10.27;;
51913;SDS011;37940;53.002;6.930;2022-08-30T04:16:13;9.73;;;8.05;;
51913;SDS011;37940;53.002;6.930;2022-08-30T04:18:39;12.15;;;9.10;;
51913;SDS011;37940;53.002;6.930;2022-08-30T04:21:04;11.07;;;9.73;;
51913;SDS011;37940;53.002;6.930;2022-08-30T04:23:31;15.48;;;9.75;;
51913;SDS011;37940;53.002;6.930;2022-08-30T04:25:57;13.93;;;11.32;;
51913;SDS011;37940;53.002;6.930;2022-08-30T04:28:22;12.05;;;9.93;;
51913;SDS011;37940;53.002;6.930;2022-08-30T04:30:48;13.40;;;10.90;;
51913;SDS011;37940;53.002;6.930;2022-08-30T04:33:14;15.60;;;11.00;;
51913;SDS011;37940;53.002;6.930;2022-08-30T04:35:41;11.60;;;10.13;;
51913;SDS011;37940;53.002;6.930;2022-08-30T04:38:09;13.57;;;10.98;;
51913;SDS011;37940;53.002;6.930;2022-08-30T04:40:36;11.32;;;9.45;;
51913;SDS011;37940;53.002;6.930;2022-08-30T04:43:02;14.18;;;10.18;;
51913;SDS011;37940;53.002;6.930;2022-08-30T04:45:28;12.07;;;10.13;;
51913;SDS011;37940;53.002;6.930;2022-08-30T04:47:54;13.10;;;11.40;;
51913;SDS011;37940;53.002;6.930;2022-08-30T04:50:20;15.88;;;12.23;;
51913;SDS011;37940;53.002;6.930;2022-08-30T04:52:46;14.35;;;12.15;;
51913;SDS011;37940;53.002;6.930;2022-08-30T04:55:12;14.10;;;11.50;;
51913;SDS011;37940;53.002;6.930;2022-08-30T04:57:39;14.05;;;10.98;;
51913;SDS011;37940;53.002;6.930;2022-08-30T05:00:05;14.20;;;10.43;;
51913;SDS011;37940;53.002;6.930;2022-08-30T05:02:35;12.30;;;10.25;;
51913;SDS011;37940;53.002;6.930;2022-08-30T05:05:01;13.23;;;10.85;;
51913;SDS011;37940;53.002;6.930;2022-08-30T05:07:46;15.95;;;11.05;;
51913;SDS011;37940;53.002;6.930;2022-08-30T05:10:12;17.83;;;10.00;;
51913;SDS011;37940;53.002;6.930;2022-08-30T05:12:38;14.23;;;10.35;;
51913;SDS011;37940;53.002;6.930;2022-08-30T05:15:05;12.35;;;9.85;;
51913;SDS011;37940;53.002;6.930;2022-08-30T05:17:31;13.63;;;10.68;;
51913;SDS011;37940;53.002;6.930;2022-08-30T05:19:57;16.50;;;10.73;;
51913;SDS011;37940;53.002;6.930;2022-08-30T05:22:25;15.32;;;11.32;;
51913;SDS011;37940;53.002;6.930;2022-08-30T05:24:51;14.07;;;11.45;;
51913;SDS011;37940;53.002;6.930;2022-08-30T05:27:17;15.70;;;11.43;;
51913;SDS011;37940;53.002;6.930;2022-08-30T05:29:43;14.55;;;10.95;;
51913;SDS011;37940;53.002;6.930;2022-08-30T05:32:09;10.63;;;9.38;;
51913;SDS011;37940;53.002;6.930;2022-08-30T05:34:34;10.85;;;9.75;;
51913;SDS011;37940;53.002;6.930;2022-08-30T05:37:00;14.57;;;10.65;;
51913;SDS011;37940;53.002;6.930;2022-08-30T05:39:27;12.57;;;7.90;;
51913;SDS011;37940;53.002;6.930;2022-08-30T05:41:57;9.23;;;7.40;;
51913;SDS011;37940;53.002;6.930;2022-08-30T05:44:23;8.77;;;7.75;;
51913;SDS011;37940;53.002;6.930;2022-08-30T05:46:49;8.07;;;7.03;;
51913;SDS011;37940;53.002;6.930;2022-08-30T05:49:16;9.80;;;6.68;;
51913;SDS011;37940;53.002;6.930;2022-08-30T05:51:42;8.45;;;6.00;;
51913;SDS011;37940;53.002;6.930;2022-08-30T05:54:08;7.38;;;6.18;;
51913;SDS011;37940;53.002;6.930;2022-08-30T05:56:36;9.05;;;5.05;;
51913;SDS011;37940;53.002;6.930;2022-08-30T05:59:03;6.93;;;5.05;;
51913;SDS011;37940;53.002;6.930;2022-08-30T06:01:35;7.22;;;4.97;;
51913;SDS011;37940;53.002;6.930;2022-08-30T06:04:04;6.68;;;5.18;;
51913;SDS011;37940;53.002;6.930;2022-08-30T06:06:31;6.60;;;4.78;;
51913;SDS011;37940;53.002;6.930;2022-08-30T06:08:59;8.82;;;5.00;;
51913;SDS011;37940;53.002;6.930;2022-08-30T06:11:26;6.38;;;4.72;;
51913;SDS011;37940;53.002;6.930;2022-08-30T06:13:52;6.15;;;4.53;;
51913;SDS011;37940;53.002;6.930;2022-08-30T06:16:20;10.00;;;5.05;;
51913;SDS011;37940;53.002;6.930;2022-08-30T06:18:47;7.63;;;5.35;;
51913;SDS011;37940;53.002;6.930;2022-08-30T06:21:14;6.68;;;5.25;;
51913;SDS011;37940;53.002;6.930;2022-08-30T06:23:48;9.68;;;5.00;;
51913;SDS011;37940;53.002;6.930;2022-08-30T06:26:14;7.10;;;4.75;;
51913;SDS011;37940;53.002;6.930;2022-08-30T06:28:40;7.32;;;4.63;;
51913;SDS011;37940;53.002;6.930;2022-08-30T06:31:07;7.07;;;4.53;;
51913;SDS011;37940;53.002;6.930;2022-08-30T06:33:34;8.85;;;4.43;;
51913;SDS011;37940;53.002;6.930;2022-08-30T06:36:04;7.93;;;4.38;;
51913;SDS011;37940;53.002;6.930;2022-08-30T06:38:31;8.63;;;4.13;;
51913;SDS011;37940;53.002;6.930;2022-08-30T06:40:58;7.60;;;4.00;;
51913;SDS011;37940;53.002;6.930;2022-08-30T06:43:23;8.40;;;3.85;;
51913;SDS011;37940;53.002;6.930;2022-08-30T06:45:49;9.10;;;4.22;;
51913;SDS011;37940;53.002;6.930;2022-08-30T06:48:15;9.02;;;4.40;;
51913;SDS011;37940;53.002;6.930;2022-08-30T06:50:42;6.43;;;4.18;;
51913;SDS011;37940;53.002;6.930;2022-08-30T06:53:11;5.78;;;3.65;;
51913;SDS011;37940;53.002;6.930;2022-08-30T06:55:37;8.35;;;4.18;;
51913;SDS011;37940;53.002;6.930;2022-08-30T06:58:03;7.22;;;4.00;;
51913;SDS011;37940;53.002;6.930;2022-08-30T07:00:29;6.50;;;3.50;;
51913;SDS011;37940;53.002;6.930;2022-08-30T07:02:55;6.30;;;3.50;;
51913;SDS011;37940;53.002;6.930;2022-08-30T07:05:21;7.85;;;3.72;;
51913;SDS011;37940;53.002;6.930;2022-08-30T07:07:48;6.07;;;3.78;;
51913;SDS011;37940;53.002;6.930;2022-08-30T07:10:14;6.00;;;3.40;;
51913;SDS011;37940;53.002;6.930;2022-08-30T07:12:40;6.80;;;3.20;;
51913;SDS011;37940;53.002;6.930;2022-08-30T07:15:06;5.68;;;2.90;;
51913;SDS011;37940;53.002;6.930;2022-08-30T07:17:32;5.07;;;2.88;;
51913;SDS011;37940;53.002;6.930;2022-08-30T07:20:17;6.00;;;2.75;;
51913;SDS011;37940;53.002;6.930;2022-08-30T07:22:45;5.63;;;2.67;;
51913;SDS011;37940;53.002;6.930;2022-08-30T07:25:11;3.95;;;2.47;;
51913;SDS011;37940;53.002;6.930;2022-08-30T07:27:37;6.88;;;2.40;;
51913;SDS011;37940;53.002;6.930;2022-08-30T07:30:04;4.05;;;2.30;;
51913;SDS011;37940;53.002;6.930;2022-08-30T07:32:31;5.03;;;2.25;;
51913;SDS011;37940;53.002;6.930;2022-08-30T07:34:57;3.22;;;2.20;;
51913;SDS011;37940;53.002;6.930;2022-08-30T07:37:23;4.25;;;2.25;;
51913;SDS011;37940;53.002;6.930;2022-08-30T07:39:49;4.68;;;2.20;;
51913;SDS011;37940;53.002;6.930;2022-08-30T07:42:15;3.85;;;2.00;;
51913;SDS011;37940;53.002;6.930;2022-08-30T07:44:41;5.78;;;2.25;;
51913;SDS011;37940;53.002;6.930;2022-08-30T07:47:08;3.80;;;2.13;;
51913;SDS011;37940;53.002;6.930;2022-08-30T07:49:33;4.63;;;2.22;;
51913;SDS011;37940;53.002;6.930;2022-08-30T07:52:00;4.53;;;2.20;;
51913;SDS011;37940;53.002;6.930;2022-08-30T07:54:26;5.43;;;2.20;;
51913;SDS011;37940;53.002;6.930;2022-08-30T07:56:52;10.50;;;2.22;;
51913;SDS011;37940;53.002;6.930;2022-08-30T07:59:20;6.28;;;1.83;;
51913;SDS011;37940;53.002;6.930;2022-08-30T08:01:47;4.00;;;1.77;;
51913;SDS011;37940;53.002;6.930;2022-08-30T08:04:12;3.65;;;1.70;;
51913;SDS011;37940;53.002;6.930;2022-08-30T08:06:38;4.82;;;2.00;;
51913;SDS011;37940;53.002;6.930;2022-08-30T08:09:05;5.88;;;2.00;;
51913;SDS011;37940;53.002;6.930;2022-08-30T08:11:32;3.10;;;1.70;;
51913;SDS011;37940;53.002;6.930;2022-08-30T08:14:00;6.20;;;2.00;;
51913;SDS011;37940;53.002;6.930;2022-08-30T08:16:27;4.70;;;1.70;;
51913;SDS011;37940;53.002;6.930;2022-08-30T08:18:54;2.58;;;1.50;;
51913;SDS011;37940;53.002;6.930;2022-08-30T08:21:20;2.92;;;1.65;;
51913;SDS011;37940;53.002;6.930;2022-08-30T08:23:47;4.65;;;1.50;;
51913;SDS011;37940;53.002;6.930;2022-08-30T08:26:13;3.78;;;1.60;;
51913;SDS011;37940;53.002;6.930;2022-08-30T08:28:39;2.92;;;1.40;;
51913;SDS011;37940;53.002;6.930;2022-08-30T08:31:16;4.45;;;1.60;;
51913;SDS011;37940;53.002;6.930;2022-08-30T08:33:51;3.88;;;1.70;;
51913;SDS011;37940;53.002;6.930;2022-08-30T08:36:17;3.33;;;1.50;;
51913;SDS011;37940;53.002;6.930;2022-08-30T08:38:43;3.53;;;1.55;;
51913;SDS011;37940;53.002;6.930;2022-08-30T08:43:58;4.57;;;1.63;;
51913;SDS011;37940;53.002;6.930;2022-08-30T08:46:28;2.15;;;1.30;;
51913;SDS011;37940;53.002;6.930;2022-08-30T08:49:01;3.45;;;1.50;;
51913;SDS011;37940;53.002;6.930;2022-08-30T08:51:30;1.83;;;1.30;;
51913;SDS011;37940;53.002;6.930;2022-08-30T08:57:06;3.95;;;1.60;;
51913;SDS011;37940;53.002;6.930;2022-08-30T08:59:33;2.92;;;1.58;;
51913;SDS011;37940;53.002;6.930;2022-08-30T09:01:59;2.50;;;1.35;;
51913;SDS011;37940;53.002;6.930;2022-08-30T09:04:33;4.75;;;1.60;;
51913;SDS011;37940;53.002;6.930;2022-08-30T09:09:33;4.88;;;1.50;;
51913;SDS011;37940;53.002;6.930;2022-08-30T09:12:01;2.90;;;1.27;;
51913;SDS011;37940;53.002;6.930;2022-08-30T09:14:30;2.40;;;1.50;;
51913;SDS011;37940;53.002;6.930;2022-08-30T09:17:01;3.05;;;1.50;;
51913;SDS011;37940;53.002;6.930;2022-08-30T09:27:35;2.88;;;1.45;;
51913;SDS011;37940;53.002;6.930;2022-08-30T09:32:52;4.32;;;1.20;;
51913;SDS011;37940;53.002;6.930;2022-08-30T09:38:06;2.38;;;1.40;;
51913;SDS011;37940;53.002;6.930;2022-08-30T09:40:53;6.13;;;1.60;;
51913;SDS011;37940;53.002;6.930;2022-08-30T09:43:23;3.40;;;1.58;;
51913;SDS011;37940;53.002;6.930;2022-08-30T09:53:35;3.50;;;1.33;;
51913;SDS011;37940;53.002;6.930;2022-08-30T09:56:19;3.47;;;1.40;;
51913;SDS011;37940;53.002;6.930;2022-08-30T10:01:36;3.15;;;1.50;;
51913;SDS011;37940;53.002;6.930;2022-08-30T10:15:02;2.67;;;1.20;;
51913;SDS011;37940;53.002;6.930;2022-08-30T10:23:20;3.15;;;1.67;;
51913;SDS011;37940;53.002;6.930;2022-08-30T10:25:52;1.83;;;1.50;;
51913;SDS011;37940;53.002;6.930;2022-08-30T10:28:22;4.00;;;1.33;;
51913;SDS011;37940;53.002;6.930;2022-08-30T10:31:24;2.05;;;1.20;;
51913;SDS011;37940;53.002;6.930;2022-08-30T10:34:02;2.83;;;1.38;;
51913;SDS011;37940;53.002;6.930;2022-08-30T10:36:34;2.20;;;1.20;;
51913;SDS011;37940;53.002;6.930;2022-08-30T10:39:07;3.45;;;1.70;;
51913;SDS011;37940;53.002;6.930;2022-08-30T10:41:42;1.92;;;1.40;;
51913;SDS011;37940;53.002;6.930;2022-08-30T10:44:17;3.90;;;1.40;;
51913;SDS011;37940;53.002;6.930;2022-08-30T10:47:00;3.75;;;1.27;;
51913;SDS011;37940;53.002;6.930;2022-08-30T10:49:27;4.47;;;1.20;;
51913;SDS011;37940;53.002;6.930;2022-08-30T10:54:39;3.22;;;1.52;;
51913;SDS011;37940;53.002;6.930;2022-08-30T10:57:15;2.78;;;1.40;;
51913;SDS011;37940;53.002;6.930;2022-08-30T10:59:43;1.80;;;1.25;;
51913;SDS011;37940;53.002;6.930;2022-08-30T11:05:19;2.47;;;1.35;;
51913;SDS011;37940;53.002;6.930;2022-08-30T11:12:59;2.13;;;1.20;;
51913;SDS011;37940;53.002;6.930;2022-08-30T11:16:01;2.35;;;1.40;;
51913;SDS011;37940;53.002;6.930;2022-08-30T11:18:33;1.95;;;1.30;;
51913;SDS011;37940;53.002;6.930;2022-08-30T11:21:22;2.13;;;1.30;;
51913;SDS011;37940;53.002;6.930;2022-08-30T11:42:49;3.60;;;1.30;;
51913;SDS011;37940;53.002;6.930;2022-08-30T11:47:58;3.97;;;1.43;;
51913;SDS011;37940;53.002;6.930;2022-08-30T11:53:42;4.88;;;1.25;;
51913;SDS011;37940;53.002;6.930;2022-08-30T11:56:20;3.33;;;1.30;;
51913;SDS011;37940;53.002;6.930;2022-08-30T12:09:10;1.90;;;1.30;;
51913;SDS011;37940;53.002;6.930;2022-08-30T12:14:03;2.63;;;1.10;;
51913;SDS011;37940;53.002;6.930;2022-08-30T12:16:34;1.52;;;1.10;;
51913;SDS011;37940;53.002;6.930;2022-08-30T12:19:26;4.15;;;1.35;;
51913;SDS011;37940;53.002;6.930;2022-08-30T12:21:55;1.63;;;1.08;;
51913;SDS011;37940;53.002;6.930;2022-08-30T12:26:51;1.73;;;1.05;;
51913;SDS011;37940;53.002;6.930;2022-08-30T12:29:18;3.83;;;1.30;;
51913;SDS011;37940;53.002;6.930;2022-08-30T12:31:50;2.75;;;1.20;;
51913;SDS011;37940;53.002;6.930;2022-08-30T12:34:22;1.13;;;1.02;;
51913;SDS011;37940;53.002;6.930;2022-08-30T12:36:52;2.63;;;1.30;;
51913;SDS011;37940;53.002;6.930;2022-08-30T12:39:28;2.13;;;1.30;;
51913;SDS011;37940;53.002;6.930;2022-08-30T12:41:56;1.45;;;1.00;;
51913;SDS011;37940;53.002;6.930;2022-08-30T12:44:41;3.15;;;1.30;;
51913;SDS011;37940;53.002;6.930;2022-08-30T12:47:07;3.80;;;1.10;;
51913;SDS011;37940;53.002;6.930;2022-08-30T12:49:36;1.40;;;1.10;;
51913;SDS011;37940;53.002;6.930;2022-08-30T12:52:19;2.22;;;1.30;;
51913;SDS011;37940;53.002;6.930;2022-08-30T12:54:47;5.10;;;1.20;;
51913;SDS011;37940;53.002;6.930;2022-08-30T12:57:14;2.05;;;1.10;;
51913;SDS011;37940;53.002;6.930;2022-08-30T13:00:00;1.77;;;1.05;;
51913;SDS011;37940;53.002;6.930;2022-08-30T13:02:40;2.20;;;1.20;;
51913;SDS011;37940;53.002;6.930;2022-08-30T13:05:27;2.17;;;1.20;;
51913;SDS011;37940;53.002;6.930;2022-08-30T13:08:15;2.25;;;1.00;;
51913;SDS011;37940;53.002;6.930;2022-08-30T13:14:18;4.00;;;1.40;;
51913;SDS011;37940;53.002;6.930;2022-08-30T13:19:32;2.63;;;1.08;;
51913;SDS011;37940;53.002;6.930;2022-08-30T13:21:58;1.55;;;1.00;;
51913;SDS011;37940;53.002;6.930;2022-08-30T13:24:25;2.10;;;1.10;;
51913;SDS011;37940;53.002;6.930;2022-08-30T13:26:52;2.72;;;1.30;;
51913;SDS011;37940;53.002;6.930;2022-08-30T13:29:24;2.67;;;0.98;;
51913;SDS011;37940;53.002;6.930;2022-08-30T13:31:50;1.55;;;1.00;;
51913;SDS011;37940;53.002;6.930;2022-08-30T13:34:17;2.17;;;1.30;;
51913;SDS011;37940;53.002;6.930;2022-08-30T13:36:47;2.95;;;1.20;;
51913;SDS011;37940;53.002;6.930;2022-08-30T13:39:15;2.88;;;1.10;;
51913;SDS011;37940;53.002;6.930;2022-08-30T13:41:41;3.58;;;1.52;;
51913;SDS011;37940;53.002;6.930;2022-08-30T13:44:07;1.80;;;1.20;;
51913;SDS011;37940;53.002;6.930;2022-08-30T13:46:32;2.40;;;0.93;;
51913;SDS011;37940;53.002;6.930;2022-08-30T13:49:03;1.45;;;0.93;;
51913;SDS011;37940;53.002;6.930;2022-08-30T13:51:31;3.70;;;1.20;;
51913;SDS011;37940;53.002;6.930;2022-08-30T13:53:56;3.20;;;1.13;;
51913;SDS011;37940;53.002;6.930;2022-08-30T13:56:23;3.35;;;1.40;;
51913;SDS011;37940;53.002;6.930;2022-08-30T13:58:49;5.13;;;1.25;;
51913;SDS011;37940;53.002;6.930;2022-08-30T14:01:15;1.60;;;1.10;;
51913;SDS011;37940;53.002;6.930;2022-08-30T14:03:41;2.00;;;1.10;;
51913;SDS011;37940;53.002;6.930;2022-08-30T14:06:06;2.05;;;1.02;;
51913;SDS011;37940;53.002;6.930;2022-08-30T14:08:32;2.85;;;1.20;;
51913;SDS011;37940;53.002;6.930;2022-08-30T14:11:01;2.45;;;1.30;;
51913;SDS011;37940;53.002;6.930;2022-08-30T14:13:27;1.80;;;1.17;;
51913;SDS011;37940;53.002;6.930;2022-08-30T14:15:53;2.75;;;1.30;;
51913;SDS011;37940;53.002;6.930;2022-08-30T14:18:21;2.38;;;1.10;;
51913;SDS011;37940;53.002;6.930;2022-08-30T14:20:46;2.88;;;1.35;;
51913;SDS011;37940;53.002;6.930;2022-08-30T14:23:12;5.18;;;1.40;;
51913;SDS011;37940;53.002;6.930;2022-08-30T14:25:38;4.07;;;1.13;;
51913;SDS011;37940;53.002;6.930;2022-08-30T14:28:04;2.63;;;1.42;;
51913;SDS011;37940;53.002;6.930;2022-08-30T14:30:30;2.42;;;1.20;;
51913;SDS011;37940;53.002;6.930;2022-08-30T14:32:56;1.85;;;1.10;;
51913;SDS011;37940;53.002;6.930;2022-08-30T14:35:22;2.78;;;1.05;;
51913;SDS011;37940;53.002;6.930;2022-08-30T14:37:48;1.98;;;1.30;;
51913;SDS011;37940;53.002;6.930;2022-08-30T14:40:14;2.30;;;1.20;;
51913;SDS011;37940;53.002;6.930;2022-08-30T14:42:41;2.60;;;1.33;;
51913;SDS011;37940;53.002;6.930;2022-08-30T14:45:07;2.97;;;1.40;;
51913;SDS011;37940;53.002;6.930;2022-08-30T14:47:34;2.50;;;1.10;;
51913;SDS011;37940;53.002;6.930;2022-08-30T14:50:00;4.05;;;1.10;;
51913;SDS011;37940;53.002;6.930;2022-08-30T14:52:29;3.55;;;1.20;;
51913;SDS011;37940;53.002;6.930;2022-08-30T14:54:56;1.77;;;1.17;;
51913;SDS011;37940;53.002;6.930;2022-08-30T14:57:23;3.10;;;1.10;;
51913;SDS011;37940;53.002;6.930;2022-08-30T14:59:49;5.55;;;1.30;;
51913;SDS011;37940;53.002;6.930;2022-08-30T15:02:15;3.10;;;1.10;;
51913;SDS011;37940;53.002;6.930;2022-08-30T15:04:41;2.05;;;1.30;;
51913;SDS011;37940;53.002;6.930;2022-08-30T15:07:06;2.67;;;1.30;;
51913;SDS011;37940;53.002;6.930;2022-08-30T15:09:32;2.90;;;1.38;;
51913;SDS011;37940;53.002;6.930;2022-08-30T15:11:58;1.60;;;1.10;;
51913;SDS011;37940;53.002;6.930;2022-08-30T15:14:27;3.33;;;1.10;;
51913;SDS011;37940;53.002;6.930;2022-08-30T15:16:53;4.75;;;1.20;;
51913;SDS011;37940;53.002;6.930;2022-08-30T15:19:20;2.65;;;1.33;;
51913;SDS011;37940;53.002;6.930;2022-08-30T15:21:46;1.65;;;1.13;;
51913;SDS011;37940;53.002;6.930;2022-08-30T15:24:20;2.65;;;1.30;;
51913;SDS011;37940;53.002;6.930;2022-08-30T15:26:47;2.10;;;1.30;;
51913;SDS011;37940;53.002;6.930;2022-08-30T15:29:14;2.25;;;1.20;;
51913;SDS011;37940;53.002;6.930;2022-08-30T15:31:41;1.90;;;1.17;;
51913;SDS011;37940;53.002;6.930;2022-08-30T15:34:09;2.00;;;1.13;;
51913;SDS011;37940;53.002;6.930;2022-08-30T15:36:36;1.95;;;1.20;;
51913;SDS011;37940;53.002;6.930;2022-08-30T15:39:02;2.17;;;1.30;;
51913;SDS011;37940;53.002;6.930;2022-08-30T15:41:29;2.65;;;1.30;;
51913;SDS011;37940;53.002;6.930;2022-08-30T15:43:55;1.70;;;1.05;;
51913;SDS011;37940;53.002;6.930;2022-08-30T15:46:23;1.45;;;1.17;;
51913;SDS011;37940;53.002;6.930;2022-08-30T15:48:52;2.00;;;1.10;;
51913;SDS011;37940;53.002;6.930;2022-08-30T15:51:19;4.38;;;1.20;;
51913;SDS011;37940;53.002;6.930;2022-08-30T15:53:46;2.97;;;1.20;;
51913;SDS011;37940;53.002;6.930;2022-08-30T15:56:13;2.25;;;1.15;;
51913;SDS011;37940;53.002;6.930;2022-08-30T15:58:39;2.95;;;1.30;;
51913;SDS011;37940;53.002;6.930;2022-08-30T16:01:05;1.67;;;1.15;;
51913;SDS011;37940;53.002;6.930;2022-08-30T16:03:32;3.35;;;1.23;;
51913;SDS011;37940;53.002;6.930;2022-08-30T16:05:58;2.97;;;1.25;;
51913;SDS011;37940;53.002;6.930;2022-08-30T16:08:25;1.88;;;1.10;;
51913;SDS011;37940;53.002;6.930;2022-08-30T16:10:52;3.22;;;1.10;;
51913;SDS011;37940;53.002;6.930;2022-08-30T16:13:17;3.40;;;1.23;;
51913;SDS011;37940;53.002;6.930;2022-08-30T16:15:43;2.22;;;1.00;;
51913;SDS011;37940;53.002;6.930;2022-08-30T16:18:09;3.45;;;1.20;;
51913;SDS011;37940;53.002;6.930;2022-08-30T16:20:38;5.20;;;1.20;;
51913;SDS011;37940;53.002;6.930;2022-08-30T16:23:09;3.08;;;1.52;;
51913;SDS011;37940;53.002;6.930;2022-08-30T16:25:35;2.63;;;1.15;;
51913;SDS011;37940;53.002;6.930;2022-08-30T16:28:02;4.88;;;1.30;;
51913;SDS011;37940;53.002;6.930;2022-08-30T16:30:28;3.90;;;1.35;;
51913;SDS011;37940;53.002;6.930;2022-08-30T16:32:54;2.97;;;1.40;;
51913;SDS011;37940;53.002;6.930;2022-08-30T16:35:20;3.55;;;1.15;;
51913;SDS011;37940;53.002;6.930;2022-08-30T16:37:45;4.32;;;1.23;;
51913;SDS011;37940;53.002;6.930;2022-08-30T16:40:11;2.35;;;1.25;;